Alamo, Indiana
Current Conditions -  °F | °C
As of 9:15 PM on Sunday 21 Dec 2014 (Local Time) from K4I7 Reporting Station
Clear Clear  
Wind Chill: 23°   Ceiling: Unl
Heat Index: 30°   Visibility: 7mi
Dew Point: 25°   Wind: 7mph
Humidity: 80%   Direction: 120°ESE
Pressure: 30.1"   Gusts: NA
Location:  39.98°N, 87.06°W
Report Text: K4I7 220215Z AUTO 12006KT 7SM CLR M01/M04 A3010 RMK AO2
Loading
Personal Weather Stations






























Interactive Weather Map New forecast layout! Learn more

10-Day Weather Forecast

Advertisements
Track Severe Weather on mobile